Time;durP1;ratioP1;P1;durP2;ratioP2;P2;SDS_P1;SDS_P2;PMS_P1;PMS_P2;Temp;Humidity;BMP_temperature;BMP_pressure;BME280_temperature;BME280_humidity;BME280_pressure;Samples;Min_cycle;Max_cycle;Signal;HPM_P1;HPM_P2
2021/01/17 00:02:07;;;;;;;11.10;8.13;;;;;;;;;;4774926;30;20197;-88
2021/01/17 00:04:35;;;;;;;12.18;9.07;;;;;;;;;;4775419;30;20476;-86
2021/01/17 00:07:02;;;;;;;10.68;8.45;;;;;;;;;;4775694;30;20215;-87
2021/01/17 00:09:29;;;;;;;13.30;9.95;;;;;;;;;;4775524;30;20200;-87
2021/01/17 00:11:56;;;;;;;13.80;9.07;;;;;;;;;;4775461;30;20243;-88
2021/01/17 00:14:23;;;;;;;13.20;9.55;;;;;;;;;;4775783;30;20477;-86
2021/01/17 00:16:50;;;;;;;13.82;9.23;;;;;;;;;;4775344;30;20208;-86
2021/01/17 00:19:17;;;;;;;13.70;9.65;;;;;;;;;;4774786;30;20307;-85
2021/01/17 00:21:45;;;;;;;11.55;9.30;;;;;;;;;;4775241;30;20236;-85
2021/01/17 00:24:13;;;;;;;14.55;9.93;;;;;;;;;;4775725;30;20211;-89
2021/01/17 00:26:42;;;;;;;13.85;10.70;;;;;;;;;;4775616;30;20275;-93
2021/01/17 00:29:09;;;;;;;15.07;11.10;;;;;;;;;;4775312;30;20219;-85
2021/01/17 00:31:36;;;;;;;16.70;10.50;;;;;;;;;;4775518;30;20571;-88
2021/01/17 00:34:04;;;;;;;15.73;11.00;;;;;;;;;;4775751;30;20202;-88
2021/01/17 00:36:38;;;;;;;15.50;10.90;;;;;;;;;;4775777;30;20208;-88
2021/01/17 00:39:07;;;;;;;16.15;10.75;;;;;;;;;;4775647;30;20196;-89
2021/01/17 00:41:35;;;;;;;12.95;10.52;;;;;;;;;;4775639;30;20192;-89
2021/01/17 00:44:03;;;;;;;15.30;10.48;;;;;;;;;;4775638;30;20205;-88
2021/01/17 00:46:37;;;;;;;17.15;11.68;;;;;;;;;;4776386;30;20197;-88
2021/01/17 00:49:05;;;;;;;14.45;10.35;;;;;;;;;;4775325;30;20196;-88
2021/01/17 00:51:44;;;;;;;15.52;11.02;;;;;;;;;;4775016;30;20247;-89
2021/01/17 00:54:13;;;;;;;17.52;12.55;;;;;;;;;;4776213;30;20303;-89
2021/01/17 00:56:40;;;;;;;13.63;11.02;;;;;;;;;;4775540;30;20543;-89
2021/01/17 00:59:10;;;;;;;18.85;12.45;;;;;;;;;;4775169;30;20455;-88
2021/01/17 01:01:38;;;;;;;15.63;11.90;;;;;;;;;;4775484;30;20195;-89
2021/01/17 01:04:06;;;;;;;19.42;14.18;;;;;;;;;;4775350;30;20215;-89
2021/01/17 01:06:33;;;;;;;17.25;12.90;;;;;;;;;;4775041;30;20253;-88
2021/01/17 01:09:02;;;;;;;19.98;12.82;;;;;;;;;;4774204;30;20196;-89
2021/01/17 01:11:30;;;;;;;17.20;12.40;;;;;;;;;;4774072;30;20459;-88
2021/01/17 01:13:57;;;;;;;21.17;13.98;;;;;;;;;;4774749;30;20212;-89
2021/01/17 01:16:24;;;;;;;22.48;13.93;;;;;;;;;;4774980;30;20188;-88
2021/01/17 01:18:51;;;;;;;19.75;13.55;;;;;;;;;;4775159;30;20200;-88
2021/01/17 01:21:25;;;;;;;18.38;14.23;;;;;;;;;;4770453;30;20239;-88
2021/01/17 01:23:52;;;;;;;19.27;12.70;;;;;;;;;;4774787;30;20260;-88
2021/01/17 01:26:21;;;;;;;19.10;13.70;;;;;;;;;;4774918;30;20204;-86
2021/01/17 01:28:49;;;;;;;19.42;14.02;;;;;;;;;;4773450;30;20243;-88
2021/01/17 01:31:21;;;;;;;27.60;16.35;;;;;;;;;;4774465;30;20467;-88
2021/01/17 01:33:48;;;;;;;22.60;14.77;;;;;;;;;;4774592;30;20212;-89
2021/01/17 01:36:27;;;;;;;23.63;15.68;;;;;;;;;;4774896;30;20286;-88
2021/01/17 01:38:55;;;;;;;21.38;13.90;;;;;;;;;;4774966;30;20268;-89
2021/01/17 01:41:26;;;;;;;20.25;14.48;;;;;;;;;;4776610;30;20211;-89
2021/01/17 01:43:54;;;;;;;19.42;13.75;;;;;;;;;;4778454;30;20192;-90
2021/01/17 01:46:23;;;;;;;22.33;15.60;;;;;;;;;;4778669;30;20199;-90
2021/01/17 01:48:51;;;;;;;20.95;14.20;;;;;;;;;;4778599;30;20200;-89
2021/01/17 01:51:20;;;;;;;21.60;14.60;;;;;;;;;;4777981;30;20330;-90
2021/01/17 01:53:47;;;;;;;20.88;14.88;;;;;;;;;;4778393;30;20220;-89
2021/01/17 01:56:15;;;;;;;18.65;14.30;;;;;;;;;;4778664;30;20614;-88
2021/01/17 01:58:43;;;;;;;21.38;14.48;;;;;;;;;;4778437;30;20202;-90
2021/01/17 02:01:11;;;;;;;22.63;14.73;;;;;;;;;;4777580;30;20192;-88
2021/01/17 02:03:38;;;;;;;22.05;15.02;;;;;;;;;;4778101;30;20188;-87
2021/01/17 02:06:11;;;;;;;25.35;15.85;;;;;;;;;;4777860;30;20578;-89
2021/01/17 02:09:13;;;;;;;22.17;15.35;;;;;;;;;;4778470;30;20475;-89
2021/01/17 02:11:53;;;;;;;21.33;15.27;;;;;;;;;;4777563;30;20563;-90
2021/01/17 02:14:32;;;;;;;21.98;15.43;;;;;;;;;;4778103;30;20216;-88
2021/01/17 02:17:01;;;;;;;23.00;17.48;;;;;;;;;;4777894;30;20624;-89
2021/01/17 02:19:31;;;;;;;21.65;15.25;;;;;;;;;;4777973;30;20200;-89
2021/01/17 02:22:00;;;;;;;24.85;16.33;;;;;;;;;;4777507;30;20256;-89
2021/01/17 02:24:42;;;;;;;20.27;14.27;;;;;;;;;;4777370;30;20659;-89
2021/01/17 02:27:08;;;;;;;20.58;15.38;;;;;;;;;;4777755;30;20283;-89
2021/01/17 02:29:36;;;;;;;20.30;14.45;;;;;;;;;;4777562;30;20464;-88
2021/01/17 02:32:05;;;;;;;21.08;15.45;;;;;;;;;;4777639;30;20284;-89
2021/01/17 02:34:33;;;;;;;21.42;15.15;;;;;;;;;;4777689;30;20219;-89
2021/01/17 02:37:08;;;;;;;20.63;14.88;;;;;;;;;;4777730;30;20222;-89
2021/01/17 02:39:48;;;;;;;25.30;15.38;;;;;;;;;;4777387;30;20191;-90
2021/01/17 02:42:16;;;;;;;23.92;14.52;;;;;;;;;;4777439;30;20216;-89
2021/01/17 02:44:43;;;;;;;23.17;15.35;;;;;;;;;;4777379;30;20199;-90
2021/01/17 02:47:10;;;;;;;22.85;14.50;;;;;;;;;;4777435;30;20456;-88
2021/01/17 02:49:37;;;;;;;21.92;14.25;;;;;;;;;;4777217;30;20232;-88
2021/01/17 02:52:07;;;;;;;23.45;16.35;;;;;;;;;;4777052;30;20228;-90
2021/01/17 02:54:36;;;;;;;20.85;14.52;;;;;;;;;;4777011;30;20593;-89
2021/01/17 02:57:06;;;;;;;24.00;15.60;;;;;;;;;;4777543;30;20467;-89
2021/01/17 02:59:35;;;;;;;21.52;13.77;;;;;;;;;;4777047;30;20188;-89
2021/01/17 03:02:05;;;;;;;20.30;14.20;;;;;;;;;;4777050;30;20486;-88
2021/01/17 03:04:38;;;;;;;28.70;17.38;;;;;;;;;;4777144;30;20207;-89
2021/01/17 03:07:09;;;;;;;21.42;15.25;;;;;;;;;;4776965;30;20216;-89
2021/01/17 03:09:36;;;;;;;23.27;14.80;;;;;;;;;;4777092;30;20474;-88
2021/01/17 03:12:06;;;;;;;22.50;16.58;;;;;;;;;;4776823;30;20214;-89
2021/01/17 03:14:36;;;;;;;24.70;17.05;;;;;;;;;;4776848;30;20476;-89
2021/01/17 03:17:05;;;;;;;25.25;15.32;;;;;;;;;;4777068;30;20288;-89
2021/01/17 03:19:32;;;;;;;20.08;15.13;;;;;;;;;;4776992;30;20214;-89
2021/01/17 03:21:59;;;;;;;24.92;15.88;;;;;;;;;;4776557;30;20233;-89
2021/01/17 03:24:26;;;;;;;20.15;14.73;;;;;;;;;;4775726;30;20212;-90
2021/01/17 03:26:54;;;;;;;22.30;15.95;;;;;;;;;;4776723;30;20212;-90
2021/01/17 03:29:21;;;;;;;26.13;16.02;;;;;;;;;;4776938;30;20196;-88
2021/01/17 03:31:48;;;;;;;23.42;16.42;;;;;;;;;;4776976;30;20192;-90
2021/01/17 03:34:15;;;;;;;25.05;16.42;;;;;;;;;;4776858;30;20212;-88
2021/01/17 03:36:43;;;;;;;24.45;16.58;;;;;;;;;;4776571;30;20275;-88
2021/01/17 03:39:09;;;;;;;22.25;15.93;;;;;;;;;;4776635;30;20211;-89
2021/01/17 03:41:36;;;;;;;22.85;17.23;;;;;;;;;;4776585;30;20476;-88
2021/01/17 03:44:04;;;;;;;22.30;15.90;;;;;;;;;;4776627;30;20192;-88
2021/01/17 03:46:32;;;;;;;21.40;15.27;;;;;;;;;;4776324;30;20196;-88
2021/01/17 03:48:59;;;;;;;21.15;15.27;;;;;;;;;;4776608;30;20199;-88
2021/01/17 03:51:26;;;;;;;21.40;14.57;;;;;;;;;;4775568;30;20652;-88
2021/01/17 03:53:53;;;;;;;25.77;17.58;;;;;;;;;;4776232;30;20482;-88
2021/01/17 03:56:20;;;;;;;22.30;16.15;;;;;;;;;;4776382;30;20476;-89
2021/01/17 03:58:46;;;;;;;23.60;16.67;;;;;;;;;;4776362;30;20211;-89
2021/01/17 04:01:13;;;;;;;24.30;15.18;;;;;;;;;;4775926;30;20211;-88
2021/01/17 04:03:41;;;;;;;23.63;16.25;;;;;;;;;;4775456;30;20218;-89
2021/01/17 04:06:08;;;;;;;24.58;16.52;;;;;;;;;;4776226;30;20265;-88
2021/01/17 04:08:35;;;;;;;22.73;15.70;;;;;;;;;;4776190;30;20196;-88
2021/01/17 04:11:02;;;;;;;25.38;17.60;;;;;;;;;;4775886;30;20455;-88
2021/01/17 04:13:29;;;;;;;27.42;18.33;;;;;;;;;;4775923;30;20293;-89
2021/01/17 04:15:56;;;;;;;23.02;16.17;;;;;;;;;;4776122;30;20188;-88
2021/01/17 04:18:23;;;;;;;27.08;17.98;;;;;;;;;;4775876;30;20252;-89
2021/01/17 04:20:51;;;;;;;25.02;16.80;;;;;;;;;;4775774;30;20234;-88
2021/01/17 04:23:29;;;;;;;22.77;15.95;;;;;;;;;;4775666;30;20202;-87
2021/01/17 04:25:56;;;;;;;23.73;16.23;;;;;;;;;;4776092;30;20235;-89
2021/01/17 04:28:23;;;;;;;25.08;17.30;;;;;;;;;;4776004;30;20217;-89
2021/01/17 04:30:50;;;;;;;21.35;14.43;;;;;;;;;;4775747;30;20184;-89
2021/01/17 04:33:20;;;;;;;23.75;16.50;;;;;;;;;;4775780;30;20214;-89
2021/01/17 04:35:47;;;;;;;21.60;16.35;;;;;;;;;;4775538;30;20199;-89
2021/01/17 04:38:15;;;;;;;24.40;16.35;;;;;;;;;;4775558;30;20203;-89
2021/01/17 04:40:42;;;;;;;23.40;15.65;;;;;;;;;;4775646;30;20203;-89
2021/01/17 04:43:20;;;;;;;23.50;15.45;;;;;;;;;;4775712;30;20200;-88
2021/01/17 04:45:48;;;;;;;19.90;13.88;;;;;;;;;;4775602;30;20233;-89
2021/01/17 04:48:15;;;;;;;18.00;13.60;;;;;;;;;;4775968;30;20443;-88
2021/01/17 04:50:44;;;;;;;22.58;14.73;;;;;;;;;;4775062;30;20239;-88
2021/01/17 04:53:11;;;;;;;19.95;14.32;;;;;;;;;;4775442;30;20192;-88
2021/01/17 04:55:39;;;;;;;23.23;14.70;;;;;;;;;;4775551;30;20195;-88
2021/01/17 04:58:18;;;;;;;20.13;15.00;;;;;;;;;;4775299;30;20214;-88
2021/01/17 05:00:57;;;;;;;23.85;16.00;;;;;;;;;;4775270;30;20198;-88
2021/01/17 05:03:57;;;;;;;18.77;13.40;;;;;;;;;;4775655;30;20454;-88
2021/01/17 05:06:27;;;;;;;23.80;14.70;;;;;;;;;;4775062;30;20188;-88
2021/01/17 05:09:01;;;;;;;22.15;13.68;;;;;;;;;;4775354;30;20184;-89
2021/01/17 05:11:35;;;;;;;21.20;13.82;;;;;;;;;;4775516;30;20208;-88
2021/01/17 05:14:14;;;;;;;25.90;14.85;;;;;;;;;;4775218;30;20215;-88
2021/01/17 05:16:42;;;;;;;20.60;14.15;;;;;;;;;;4775264;30;20347;-88
2021/01/17 05:19:14;;;;;;;24.23;15.55;;;;;;;;;;4775001;30;20593;-88
2021/01/17 05:21:48;;;;;;;20.02;14.88;;;;;;;;;;4774832;30;20223;-89
2021/01/17 05:24:18;;;;;;;21.52;15.07;;;;;;;;;;4744522;30;20208;-89
2021/01/17 05:26:54;;;;;;;18.27;13.57;;;;;;;;;;4775237;30;20188;-88
2021/01/17 05:29:23;;;;;;;22.35;15.63;;;;;;;;;;4775173;30;20534;-88
2021/01/17 05:31:55;;;;;;;23.83;16.17;;;;;;;;;;4775013;30;20188;-88
2021/01/17 05:34:22;;;;;;;24.63;16.25;;;;;;;;;;4775132;30;20227;-89
2021/01/17 05:36:49;;;;;;;21.42;15.25;;;;;;;;;;4775149;30;20196;-88
2021/01/17 05:39:16;;;;;;;22.33;15.45;;;;;;;;;;4773454;30;20214;-89
2021/01/17 05:41:43;;;;;;;19.90;14.60;;;;;;;;;;4775239;30;20222;-88
2021/01/17 05:44:11;;;;;;;21.13;13.30;;;;;;;;;;4774989;30;20206;-88
2021/01/17 05:46:38;;;;;;;22.98;15.52;;;;;;;;;;4774996;30;20200;-89
2021/01/17 05:49:12;;;;;;;22.00;14.45;;;;;;;;;;4774688;30;20214;-89
2021/01/17 05:51:39;;;;;;;19.30;14.45;;;;;;;;;;4774474;30;20239;-88
2021/01/17 05:54:09;;;;;;;20.33;14.05;;;;;;;;;;4774999;30;20230;-88
2021/01/17 05:56:38;;;;;;;23.52;14.48;;;;;;;;;;4774987;30;20543;-89
2021/01/17 05:59:05;;;;;;;20.98;14.13;;;;;;;;;;4774633;30;20261;-88
2021/01/17 06:01:37;;;;;;;20.38;14.00;;;;;;;;;;4774501;30;20282;-88
2021/01/17 06:04:12;;;;;;;24.30;17.23;;;;;;;;;;4775008;30;20222;-89
2021/01/17 06:06:39;;;;;;;20.55;14.98;;;;;;;;;;4774764;30;20272;-88
2021/01/17 06:09:06;;;;;;;26.30;15.35;;;;;;;;;;4774872;30;20560;-89
2021/01/17 06:11:33;;;;;;;22.55;15.43;;;;;;;;;;4774541;30;20185;-89
2021/01/17 06:14:03;;;;;;;24.25;15.95;;;;;;;;;;4774794;30;20481;-88
2021/01/17 06:16:37;;;;;;;22.67;15.63;;;;;;;;;;4774907;30;20234;-88
2021/01/17 06:19:06;;;;;;;20.60;14.80;;;;;;;;;;4774893;30;20193;-89
2021/01/17 06:21:34;;;;;;;20.83;14.65;;;;;;;;;;4774694;30;20232;-88
2021/01/17 06:24:03;;;;;;;22.17;15.02;;;;;;;;;;4774714;30;20188;-88
2021/01/17 06:26:32;;;;;;;21.10;15.00;;;;;;;;;;4775087;30;20188;-87
2021/01/17 06:29:00;;;;;;;20.38;13.90;;;;;;;;;;4777820;30;20196;-89
2021/01/17 06:31:29;;;;;;;25.48;17.67;;;;;;;;;;4777960;30;20208;-89
2021/01/17 06:34:05;;;;;;;23.75;16.80;;;;;;;;;;4777843;30;20476;-88
2021/01/17 06:36:33;;;;;;;25.13;17.88;;;;;;;;;;4777684;30;20184;-89
2021/01/17 06:39:00;;;;;;;24.63;16.30;;;;;;;;;;4778002;30;20243;-89
2021/01/17 06:41:36;;;;;;;22.10;15.93;;;;;;;;;;4777484;30;20452;-89
2021/01/17 06:44:11;;;;;;;24.27;16.42;;;;;;;;;;4778094;30;20207;-88
2021/01/17 06:46:43;;;;;;;21.40;14.95;;;;;;;;;;4777669;30;20256;-90
2021/01/17 06:49:22;;;;;;;26.40;15.43;;;;;;;;;;4777234;30;20240;-88
2021/01/17 06:51:51;;;;;;;23.45;17.45;;;;;;;;;;4777138;30;20497;-88
2021/01/17 06:54:19;;;;;;;23.48;17.00;;;;;;;;;;4777244;30;20281;-88
2021/01/17 06:56:49;;;;;;;23.70;16.23;;;;;;;;;;4777245;30;20203;-88
2021/01/17 06:59:30;;;;;;;24.10;16.13;;;;;;;;;;4777363;30;20236;-88
2021/01/17 07:02:31;;;;;;;23.75;16.75;;;;;;;;;;4746721;30;20214;-88
2021/01/17 07:05:38;;;;;;;23.02;18.30;;;;;;;;;;4777617;30;20195;-88
2021/01/17 07:08:47;;;;;;;28.50;16.58;;;;;;;;;;4776986;30;20188;-87
2021/01/17 07:12:00;;;;;;;26.23;17.63;;;;;;;;;;4777058;30;20193;-87
2021/01/17 07:14:31;;;;;;;25.50;15.80;;;;;;;;;;4740016;30;20327;-86
2021/01/17 07:16:59;;;;;;;26.75;16.90;;;;;;;;;;4740025;30;20245;-87
2021/01/17 07:19:32;;;;;;;26.38;16.83;;;;;;;;;;4739920;30;20528;-87
2021/01/17 07:22:05;;;;;;;25.27;16.90;;;;;;;;;;4740035;30;20729;-88
2021/01/17 07:24:33;;;;;;;26.30;16.30;;;;;;;;;;4740121;30;20201;-89
2021/01/17 07:27:20;;;;;;;23.83;15.98;;;;;;;;;;4740566;30;20217;-90
2021/01/17 07:29:52;;;;;;;24.67;17.23;;;;;;;;;;4740081;30;20580;-90
2021/01/17 07:32:33;;;;;;;26.42;17.48;;;;;;;;;;4740033;30;20567;-90
2021/01/17 07:35:08;;;;;;;23.73;16.27;;;;;;;;;;4740307;30;20608;-89
2021/01/17 07:37:39;;;;;;;24.73;17.45;;;;;;;;;;4739639;30;20259;-89
2021/01/17 07:40:08;;;;;;;24.98;16.83;;;;;;;;;;4739562;30;20209;-89
2021/01/17 07:42:36;;;;;;;26.50;17.33;;;;;;;;;;4739863;30;20201;-87
2021/01/17 07:45:16;;;;;;;22.58;16.05;;;;;;;;;;4739944;30;20480;-88
2021/01/17 07:47:45;;;;;;;26.15;17.15;;;;;;;;;;4739448;30;20198;-87
2021/01/17 07:50:13;;;;;;;27.30;17.42;;;;;;;;;;4756845;30;20232;-87
2021/01/17 07:52:48;;;;;;;26.15;16.55;;;;;;;;;;4776097;30;20291;-87
2021/01/17 07:55:17;;;;;;;23.00;16.38;;;;;;;;;;4776273;30;20267;-87
2021/01/17 07:57:46;;;;;;;24.77;17.10;;;;;;;;;;4776226;30;20283;-88
2021/01/17 08:00:15;;;;;;;26.55;17.40;;;;;;;;;;4776271;30;20551;-88
2021/01/17 08:02:42;;;;;;;26.05;16.95;;;;;;;;;;4776082;30;20486;-88
2021/01/17 08:05:09;;;;;;;24.02;16.27;;;;;;;;;;4776208;30;20651;-88
2021/01/17 08:07:36;;;;;;;20.95;15.60;;;;;;;;;;4775879;30;20660;-87
2021/01/17 08:10:05;;;;;;;28.85;17.90;;;;;;;;;;4775997;30;20308;-87
2021/01/17 08:12:41;;;;;;;26.98;17.80;;;;;;;;;;4776043;30;20196;-87
2021/01/17 08:15:32;;;;;;;23.70;15.93;;;;;;;;;;4776243;30;20314;-88
2021/01/17 08:17:59;;;;;;;26.70;17.08;;;;;;;;;;4775787;30;20279;-88
2021/01/17 08:20:32;;;;;;;24.60;16.77;;;;;;;;;;4775647;30;20203;-89
2021/01/17 08:23:08;;;;;;;25.45;17.88;;;;;;;;;;4775871;30;20674;-90
2021/01/17 08:25:58;;;;;;;24.98;17.30;;;;;;;;;;4775772;30;20199;-89
2021/01/17 08:28:39;;;;;;;24.38;14.82;;;;;;;;;;4775930;30;20520;-90
2021/01/17 08:31:43;;;;;;;24.90;16.92;;;;;;;;;;4776588;30;20208;-90
2021/01/17 08:34:13;;;;;;;28.00;19.10;;;;;;;;;;4775968;30;20604;-89
2021/01/17 08:36:40;;;;;;;24.38;16.10;;;;;;;;;;4775623;30;20277;-87
2021/01/17 08:39:08;;;;;;;23.30;17.48;;;;;;;;;;4775620;30;20268;-87
2021/01/17 08:41:39;;;;;;;26.65;17.80;;;;;;;;;;4775360;30;20218;-85
2021/01/17 08:44:13;;;;;;;27.50;17.95;;;;;;;;;;4775473;30;20201;-85
2021/01/17 08:46:41;;;;;;;24.17;16.02;;;;;;;;;;4775234;30;20196;-84
2021/01/17 08:49:09;;;;;;;23.38;17.67;;;;;;;;;;4775419;30;20474;-85
2021/01/17 08:51:37;;;;;;;24.80;17.30;;;;;;;;;;4757469;30;20231;-87
2021/01/17 08:54:26;;;;;;;26.73;16.50;;;;;;;;;;4757763;30;20239;-88
2021/01/17 08:56:55;;;;;;;27.67;18.27;;;;;;;;;;4757821;30;20227;-89
2021/01/17 08:59:38;;;;;;;27.77;18.63;;;;;;;;;;4757457;30;20523;-88
2021/01/17 09:02:05;;;;;;;26.35;17.90;;;;;;;;;;4758043;30;20469;-87
2021/01/17 09:04:33;;;;;;;27.50;18.70;;;;;;;;;;4757302;30;20568;-89
2021/01/17 09:07:00;;;;;;;28.58;19.52;;;;;;;;;;4757929;30;20223;-88
2021/01/17 09:09:27;;;;;;;26.83;17.80;;;;;;;;;;4757565;30;20221;-89
2021/01/17 09:12:11;;;;;;;27.60;19.25;;;;;;;;;;4757372;30;20673;-89
2021/01/17 09:14:38;;;;;;;27.85;18.00;;;;;;;;;;4757618;30;20192;-88
2021/01/17 09:17:10;;;;;;;26.80;18.50;;;;;;;;;;4757212;30;20213;-91
2021/01/17 09:19:38;;;;;;;26.17;18.15;;;;;;;;;;4757552;30;20224;-88
2021/01/17 09:22:07;;;;;;;25.77;18.60;;;;;;;;;;4757268;30;20243;-90
2021/01/17 09:24:35;;;;;;;25.08;17.42;;;;;;;;;;4757182;30;20197;-90
2021/01/17 09:27:05;;;;;;;28.50;19.63;;;;;;;;;;4757110;30;20208;-90
2021/01/17 09:29:35;;;;;;;28.60;19.08;;;;;;;;;;4754015;30;21004;-87
2021/01/17 09:32:09;;;;;;;28.38;20.63;;;;;;;;;;4756848;30;20204;-88
2021/01/17 09:34:38;;;;;;;31.00;19.73;;;;;;;;;;4757029;30;20455;-89
2021/01/17 09:37:10;;;;;;;29.50;19.30;;;;;;;;;;4757172;30;20236;-89
2021/01/17 09:39:43;;;;;;;30.45;20.70;;;;;;;;;;4727660;30;20235;-89
2021/01/17 09:42:12;;;;;;;29.15;20.90;;;;;;;;;;4757264;30;20197;-90
2021/01/17 09:44:42;;;;;;;28.58;20.80;;;;;;;;;;4727132;30;20472;-89
2021/01/17 09:47:16;;;;;;;26.25;18.40;;;;;;;;;;4757243;30;20189;-90
2021/01/17 09:49:44;;;;;;;30.98;18.67;;;;;;;;;;4760999;30;20665;-92
2021/01/17 09:52:15;;;;;;;27.77;19.30;;;;;;;;;;4775084;30;20232;-90
2021/01/17 09:54:42;;;;;;;31.10;20.38;;;;;;;;;;4774700;30;20196;-87
2021/01/17 09:57:18;;;;;;;31.27;19.88;;;;;;;;;;4774516;30;20617;-90
2021/01/17 09:59:46;;;;;;;29.92;19.08;;;;;;;;;;4772185;30;20639;-89
2021/01/17 10:02:13;;;;;;;29.33;18.77;;;;;;;;;;4758782;30;20200;-90
2021/01/17 10:04:41;;;;;;;31.73;19.67;;;;;;;;;;4766208;30;20208;-90
2021/01/17 10:07:16;;;;;;;28.50;19.70;;;;;;;;;;4778305;30;20196;-88
2021/01/17 10:09:43;;;;;;;28.60;19.25;;;;;;;;;;4778114;30;20279;-90
2021/01/17 10:12:11;;;;;;;26.35;18.10;;;;;;;;;;4778305;30;20284;-89
2021/01/17 10:14:39;;;;;;;28.08;19.13;;;;;;;;;;4778370;30;20200;-89
2021/01/17 10:17:07;;;;;;;27.90;19.85;;;;;;;;;;4777611;30;20222;-90
2021/01/17 10:19:35;;;;;;;27.15;18.13;;;;;;;;;;4764261;30;20205;-90
2021/01/17 10:22:04;;;;;;;26.77;18.45;;;;;;;;;;4760295;30;20233;-89
2021/01/17 10:24:33;;;;;;;27.10;18.73;;;;;;;;;;4760339;30;20201;-90
2021/01/17 10:27:02;;;;;;;32.08;20.40;;;;;;;;;;4760129;30;20510;-89
2021/01/17 10:29:31;;;;;;;25.48;19.67;;;;;;;;;;4760074;30;20200;-90
2021/01/17 10:32:05;;;;;;;25.15;18.00;;;;;;;;;;4760459;30;20197;-89
2021/01/17 10:34:35;;;;;;;27.20;18.00;;;;;;;;;;4760062;30;20262;-89
2021/01/17 10:37:05;;;;;;;27.30;18.17;;;;;;;;;;4760068;30;20289;-90
2021/01/17 10:39:34;;;;;;;28.10;20.52;;;;;;;;;;4760634;30;20199;-87
2021/01/17 10:42:10;;;;;;;27.30;19.15;;;;;;;;;;4760012;30;20200;-89
2021/01/17 10:44:48;;;;;;;24.40;17.23;;;;;;;;;;4760424;30;20196;-89
2021/01/17 10:47:35;;;;;;;27.90;18.58;;;;;;;;;;4776326;30;20571;-89
2021/01/17 10:50:07;;;;;;;25.52;17.52;;;;;;;;;;4777463;30;20572;-88
2021/01/17 10:52:38;;;;;;;25.67;18.73;;;;;;;;;;4777710;30;20242;-88
2021/01/17 10:55:06;;;;;;;31.02;20.58;;;;;;;;;;4777420;30;20188;-87
2021/01/17 10:57:35;;;;;;;29.33;19.90;;;;;;;;;;4777643;30;20227;-89
2021/01/17 11:00:07;;;;;;;26.55;19.73;;;;;;;;;;4777491;30;20202;-87
2021/01/17 11:02:35;;;;;;;28.00;19.75;;;;;;;;;;4777269;30;20212;-88
2021/01/17 11:05:05;;;;;;;26.00;18.23;;;;;;;;;;4777170;30;20208;-86
2021/01/17 11:07:32;;;;;;;29.70;18.98;;;;;;;;;;4776890;30;20207;-89
2021/01/17 11:10:10;;;;;;;25.77;17.83;;;;;;;;;;4777155;30;20251;-85
2021/01/17 11:12:39;;;;;;;24.77;18.65;;;;;;;;;;4776590;30;20192;-85
2021/01/17 11:15:16;;;;;;;26.27;18.42;;;;;;;;;;4776988;30;20570;-88
2021/01/17 11:17:51;;;;;;;29.65;19.33;;;;;;;;;;4777174;30;20297;-87
2021/01/17 11:20:23;;;;;;;28.85;19.13;;;;;;;;;;4777391;30;20191;-86
2021/01/17 11:22:52;;;;;;;29.95;19.38;;;;;;;;;;4777240;30;20192;-86
2021/01/17 11:25:19;;;;;;;31.13;19.33;;;;;;;;;;4776030;30;20200;-87
2021/01/17 11:27:47;;;;;;;23.55;16.63;;;;;;;;;;4771901;30;20534;-87
2021/01/17 11:30:16;;;;;;;30.48;20.45;;;;;;;;;;4745865;30;20621;-88
2021/01/17 11:32:44;;;;;;;28.63;19.70;;;;;;;;;;4776765;30;20207;-90
2021/01/17 11:35:26;;;;;;;23.30;18.40;;;;;;;;;;4776079;30;20193;-87
2021/01/17 11:37:53;;;;;;;32.35;22.05;;;;;;;;;;4775010;30;20224;-87
2021/01/17 11:40:21;;;;;;;24.95;18.45;;;;;;;;;;4776533;30;20484;-87
2021/01/17 11:42:49;;;;;;;28.65;19.75;;;;;;;;;;4776385;30;20466;-88
2021/01/17 11:45:20;;;;;;;27.67;19.58;;;;;;;;;;4775982;30;20572;-89
2021/01/17 11:47:57;;;;;;;28.65;18.38;;;;;;;;;;4776623;30;20196;-89
2021/01/17 11:50:25;;;;;;;26.73;18.90;;;;;;;;;;4776036;30;20246;-91
2021/01/17 11:52:59;;;;;;;27.17;19.40;;;;;;;;;;4776106;30;20464;-88
2021/01/17 11:55:26;;;;;;;29.13;19.02;;;;;;;;;;4775694;30;20200;-86
2021/01/17 11:58:08;;;;;;;31.65;20.92;;;;;;;;;;4775578;30;20284;-88
2021/01/17 12:00:52;;;;;;;27.42;20.63;;;;;;;;;;4775080;30;20219;-87
2021/01/17 12:03:35;;;;;;;26.45;18.05;;;;;;;;;;4757910;30;20219;-88
2021/01/17 12:06:21;;;;;;;30.13;18.83;;;;;;;;;;4774221;30;20565;-86
2021/01/17 12:08:53;;;;;;;29.58;19.50;;;;;;;;;;4776097;30;20216;-86
2021/01/17 12:11:37;;;;;;;30.73;21.05;;;;;;;;;;4776068;30;20285;-87
2021/01/17 12:14:08;;;;;;;26.92;19.48;;;;;;;;;;4775878;30;20195;-88
2021/01/17 12:16:39;;;;;;;27.50;18.90;;;;;;;;;;4776495;30;20341;-87
2021/01/17 12:19:08;;;;;;;30.45;21.40;;;;;;;;;;4776628;30;20289;-88
2021/01/17 12:21:36;;;;;;;27.83;18.98;;;;;;;;;;4775730;30;20219;-88
2021/01/17 12:24:06;;;;;;;29.55;20.83;;;;;;;;;;4775299;30;20203;-88
2021/01/17 12:26:33;;;;;;;27.70;19.23;;;;;;;;;;4775562;30;20204;-88
2021/01/17 12:29:01;;;;;;;28.60;20.02;;;;;;;;;;4775777;30;20547;-87
2021/01/17 12:31:29;;;;;;;26.92;19.90;;;;;;;;;;4775626;30;20236;-87
2021/01/17 12:33:57;;;;;;;26.15;19.63;;;;;;;;;;4775910;30;20212;-87
2021/01/17 12:36:27;;;;;;;30.85;19.63;;;;;;;;;;4775839;30;20224;-88
2021/01/17 12:38:54;;;;;;;25.40;18.25;;;;;;;;;;4775504;30;20195;-88
2021/01/17 12:41:23;;;;;;;29.77;20.17;;;;;;;;;;4776141;30;20211;-88
2021/01/17 12:43:51;;;;;;;32.85;21.05;;;;;;;;;;4775688;30;20299;-88
2021/01/17 12:46:19;;;;;;;29.23;19.90;;;;;;;;;;4775647;30;20210;-88
2021/01/17 12:48:47;;;;;;;34.55;23.85;;;;;;;;;;4776014;30;20208;-88
2021/01/17 12:51:14;;;;;;;32.63;21.17;;;;;;;;;;4775261;30;20244;-88
2021/01/17 12:53:44;;;;;;;28.38;19.17;;;;;;;;;;4775653;30;20210;-88
2021/01/17 12:56:11;;;;;;;28.33;20.83;;;;;;;;;;4775952;30;20203;-92
2021/01/17 12:58:39;;;;;;;30.13;19.38;;;;;;;;;;4774611;30;20228;-87
2021/01/17 13:01:06;;;;;;;26.38;19.05;;;;;;;;;;4775530;30;20196;-87
2021/01/17 13:03:34;;;;;;;25.92;19.35;;;;;;;;;;4775976;30;20206;-88
2021/01/17 13:06:03;;;;;;;37.05;23.20;;;;;;;;;;4775174;30;20203;-89
2021/01/17 13:08:32;;;;;;;29.63;20.73;;;;;;;;;;4776142;30;20193;-88
2021/01/17 13:11:00;;;;;;;28.88;19.50;;;;;;;;;;4775310;30;20262;-88
2021/01/17 13:13:28;;;;;;;23.77;17.98;;;;;;;;;;4774938;30;20598;-88
2021/01/17 13:15:57;;;;;;;24.67;17.98;;;;;;;;;;4775355;30;20196;-87
2021/01/17 13:18:25;;;;;;;32.85;21.02;;;;;;;;;;4775159;30;20215;-88
2021/01/17 13:20:52;;;;;;;27.85;19.90;;;;;;;;;;4775106;30;20231;-88
2021/01/17 13:23:19;;;;;;;29.08;19.85;;;;;;;;;;4774734;30;20664;-87
2021/01/17 13:25:47;;;;;;;32.53;20.88;;;;;;;;;;4775155;30;20210;-88
2021/01/17 13:28:15;;;;;;;29.27;20.90;;;;;;;;;;4775213;30;20196;-88
2021/01/17 13:30:43;;;;;;;29.17;20.38;;;;;;;;;;4775162;30;20196;-88
2021/01/17 13:33:13;;;;;;;28.33;19.90;;;;;;;;;;4774840;30;20572;-89
2021/01/17 13:35:42;;;;;;;27.52;18.55;;;;;;;;;;4775133;30;20192;-88
2021/01/17 13:38:10;;;;;;;26.45;18.60;;;;;;;;;;4778448;30;20231;-88
2021/01/17 13:40:38;;;;;;;29.42;18.88;;;;;;;;;;4778857;30;20188;-89
2021/01/17 13:43:05;;;;;;;31.17;20.83;;;;;;;;;;4778788;30;20204;-87
2021/01/17 13:45:33;;;;;;;25.98;17.48;;;;;;;;;;4778681;30;20206;-88
2021/01/17 13:48:01;;;;;;;26.40;18.45;;;;;;;;;;4778632;30;20200;-87
2021/01/17 13:50:28;;;;;;;26.88;18.25;;;;;;;;;;4778534;30;20239;-88
2021/01/17 13:52:55;;;;;;;26.35;18.25;;;;;;;;;;4778731;30;20207;-88
2021/01/17 13:55:22;;;;;;;28.48;19.48;;;;;;;;;;4778226;30;20567;-88
2021/01/17 13:57:49;;;;;;;28.55;20.70;;;;;;;;;;4778736;30;20492;-88
2021/01/17 14:00:19;;;;;;;28.23;19.70;;;;;;;;;;4778684;30;20204;-88
2021/01/17 14:02:48;;;;;;;33.15;23.45;;;;;;;;;;4778849;30;20200;-87
2021/01/17 14:05:15;;;;;;;27.67;18.48;;;;;;;;;;4778812;30;20489;-87
2021/01/17 14:07:48;;;;;;;27.33;20.50;;;;;;;;;;4778327;30;20202;-88
2021/01/17 14:10:15;;;;;;;28.48;19.13;;;;;;;;;;4778267;30;20226;-88
2021/01/17 14:12:42;;;;;;;27.00;18.55;;;;;;;;;;4777975;30;20199;-88
2021/01/17 14:15:12;;;;;;;27.80;17.45;;;;;;;;;;4778291;30;20195;-88
2021/01/17 14:17:39;;;;;;;27.92;19.58;;;;;;;;;;4778088;30;20564;-88
2021/01/17 14:20:09;;;;;;;29.02;19.80;;;;;;;;;;4777700;30;20197;-88
2021/01/17 14:22:36;;;;;;;32.47;21.38;;;;;;;;;;4777613;30;20331;-91
2021/01/17 14:25:06;;;;;;;29.10;19.00;;;;;;;;;;4778656;30;20530;-88
2021/01/17 14:27:34;;;;;;;32.05;21.63;;;;;;;;;;4778553;30;20208;-90
2021/01/17 14:30:01;;;;;;;28.77;19.08;;;;;;;;;;4771477;30;20204;-88
2021/01/17 14:32:29;;;;;;;25.38;18.75;;;;;;;;;;4774026;30;20475;-88
2021/01/17 14:34:56;;;;;;;29.20;18.80;;;;;;;;;;4759131;30;20201;-87
2021/01/17 14:37:24;;;;;;;28.17;18.58;;;;;;;;;;4777098;30;20215;-88
2021/01/17 14:39:51;;;;;;;25.75;19.08;;;;;;;;;;4777274;30;20204;-88